createdAt,value
2017-12-04T00:01:19.901Z,1.60
2017-12-04T00:03:48.678Z,1.60
2017-12-04T00:06:17.812Z,1.60
2017-12-04T00:08:46.152Z,1.60
2017-12-04T00:11:15.269Z,1.60
2017-12-04T00:13:43.629Z,1.60
2017-12-04T00:16:12.728Z,1.60
2017-12-04T00:18:41.856Z,1.60
2017-12-04T00:21:09.536Z,1.60
2017-12-04T00:23:37.893Z,1.60
2017-12-04T00:26:06.244Z,1.60
2017-12-04T00:28:35.348Z,1.70
2017-12-04T00:31:03.700Z,1.60
2017-12-04T00:33:32.813Z,1.70
2017-12-04T00:36:01.917Z,1.70
2017-12-04T00:38:30.269Z,1.60
2017-12-04T00:40:59.364Z,1.70
2017-12-04T00:43:28.508Z,1.70
2017-12-04T00:45:56.878Z,1.70
2017-12-04T00:48:25.251Z,1.70
2017-12-04T00:50:53.633Z,1.60
2017-12-04T00:53:21.979Z,1.70
2017-12-04T00:55:51.135Z,1.80
2017-12-04T00:58:19.683Z,1.70
2017-12-04T01:00:47.737Z,1.80
2017-12-04T01:03:16.675Z,1.80
2017-12-04T01:05:44.927Z,1.80
2017-12-04T01:08:13.089Z,1.80
2017-12-04T01:10:41.274Z,1.80
2017-12-04T01:13:09.608Z,1.80
2017-12-04T01:15:38.741Z,1.80
2017-12-04T01:18:07.096Z,1.80
2017-12-04T01:20:36.218Z,1.80
2017-12-04T01:23:04.555Z,1.80
2017-12-04T01:25:32.902Z,1.90
2017-12-04T01:28:01.259Z,1.90
2017-12-04T01:30:29.660Z,1.90
2017-12-04T01:32:58.020Z,1.90
2017-12-04T01:35:26.373Z,1.90
2017-12-04T01:37:54.748Z,1.90
2017-12-04T01:40:22.785Z,1.90
2017-12-04T01:42:51.135Z,1.90
2017-12-04T01:45:19.517Z,2.00
2017-12-04T01:47:47.536Z,2.00
2017-12-04T01:50:16.644Z,2.00
2017-12-04T01:52:45.000Z,2.00
2017-12-04T01:55:14.113Z,1.90
2017-12-04T01:57:42.143Z,1.90
2017-12-04T02:00:10.491Z,2.00
2017-12-04T02:02:38.510Z,2.00
2017-12-04T02:05:07.646Z,2.00
2017-12-04T02:07:35.659Z,1.90
2017-12-04T02:10:03.351Z,2.00
2017-12-04T02:12:31.511Z,2.00
2017-12-04T02:15:00.620Z,2.00
2017-12-04T02:17:28.977Z,2.00
2017-12-04T02:19:57.751Z,2.00
2017-12-04T02:22:25.467Z,2.00
2017-12-04T02:24:53.500Z,2.00
2017-12-04T02:27:22.280Z,2.00
2017-12-04T02:29:50.742Z,2.00
2017-12-04T02:32:18.759Z,2.00
2017-12-04T02:34:47.136Z,2.00
2017-12-04T02:37:15.484Z,2.00
2017-12-04T02:39:43.865Z,2.00
2017-12-04T02:42:12.325Z,2.00
2017-12-04T02:44:40.012Z,2.00
2017-12-04T02:47:08.514Z,2.00
2017-12-04T02:49:36.191Z,2.00
2017-12-04T02:52:04.203Z,2.00
2017-12-04T02:54:31.889Z,2.00
2017-12-04T02:57:00.675Z,2.10
2017-12-04T02:59:29.485Z,2.10
2017-12-04T03:01:57.829Z,2.10
2017-12-04T03:04:26.183Z,2.10
2017-12-04T03:06:54.537Z,2.00
2017-12-04T03:09:22.880Z,2.10
2017-12-04T03:11:52.009Z,2.10
2017-12-04T03:14:20.362Z,2.10
2017-12-04T03:16:48.037Z,2.10
2017-12-04T03:19:16.062Z,2.10
2017-12-04T03:21:43.732Z,2.20
2017-12-04T03:24:12.195Z,2.20
2017-12-04T03:26:39.880Z,2.20
2017-12-04T03:29:08.988Z,2.20
2017-12-04T03:31:37.010Z,2.10
2017-12-04T03:34:05.030Z,2.20
2017-12-04T03:36:33.628Z,2.20
2017-12-04T03:39:01.647Z,2.20
2017-12-04T03:41:29.771Z,2.30
2017-12-04T03:43:58.128Z,2.20
2017-12-04T03:46:27.041Z,2.20
2017-12-04T03:48:55.404Z,2.20
2017-12-04T03:51:23.573Z,2.20
2017-12-04T03:53:51.922Z,2.20
2017-12-04T03:56:20.294Z,2.30
2017-12-04T03:58:49.430Z,2.30
2017-12-04T04:01:17.805Z,2.30
2017-12-04T04:03:46.912Z,2.40
2017-12-04T04:06:15.267Z,2.40
2017-12-04T04:08:44.389Z,2.40
2017-12-04T04:11:12.730Z,2.40
2017-12-04T04:13:41.868Z,2.40
2017-12-04T04:16:10.216Z,2.40
2017-12-04T04:18:39.328Z,2.40
2017-12-04T04:21:07.721Z,2.40
2017-12-04T04:23:36.073Z,2.40
2017-12-04T04:26:04.428Z,2.30
2017-12-04T04:28:33.353Z,2.40
2017-12-04T04:31:01.701Z,2.40
2017-12-04T04:33:30.057Z,2.40
2017-12-04T04:35:58.410Z,2.40
2017-12-04T04:38:26.764Z,2.40
2017-12-04T04:40:54.781Z,2.40
2017-12-04T04:43:23.119Z,2.40
2017-12-04T04:45:51.499Z,2.50
2017-12-04T04:48:19.508Z,2.50
2017-12-04T04:50:47.190Z,2.50
2017-12-04T04:53:15.465Z,2.50
2017-12-04T04:55:44.587Z,2.50
2017-12-04T05:00:47.692Z,2.50
2017-12-04T05:03:16.040Z,2.50
2017-12-04T05:05:44.056Z,2.50
2017-12-04T05:08:11.767Z,2.60
2017-12-04T05:10:40.109Z,2.60
2017-12-04T05:13:08.272Z,2.60
2017-12-04T05:15:36.639Z,2.60
2017-12-04T05:18:04.987Z,2.60
2017-12-04T05:20:33.907Z,2.70
2017-12-04T05:23:02.096Z,2.60
2017-12-04T05:25:30.445Z,2.70
2017-12-04T05:27:58.801Z,2.70
2017-12-04T05:30:27.600Z,2.70
2017-12-04T05:32:56.714Z,2.70
2017-12-04T05:35:25.073Z,2.70
2017-12-04T05:37:54.301Z,2.70
2017-12-04T05:40:22.632Z,2.70
2017-12-04T05:42:50.973Z,2.70
2017-12-04T05:45:19.157Z,2.70
2017-12-04T05:47:47.497Z,2.70
2017-12-04T05:50:15.840Z,2.80
2017-12-04T05:52:44.991Z,2.80
2017-12-04T05:55:13.339Z,2.80
2017-12-04T05:57:41.689Z,2.80
2017-12-04T06:00:09.739Z,2.80
2017-12-04T06:02:38.089Z,2.80
2017-12-04T06:05:06.441Z,2.80
2017-12-04T06:07:34.804Z,2.80
2017-12-04T06:10:03.959Z,2.90
2017-12-04T06:12:33.080Z,2.90
2017-12-04T06:15:01.472Z,2.90
2017-12-04T06:17:31.261Z,3.00
2017-12-04T06:19:59.605Z,3.00
2017-12-04T06:22:27.782Z,3.00
2017-12-04T06:24:56.133Z,3.00
2017-12-04T06:27:24.477Z,3.00
2017-12-04T06:29:52.841Z,3.00
2017-12-04T06:32:21.186Z,3.00
2017-12-04T06:34:49.966Z,2.90
2017-12-04T06:37:18.331Z,3.00
2017-12-04T06:39:48.559Z,3.00
2017-12-04T06:42:16.722Z,3.00
2017-12-04T06:44:44.905Z,3.00
2017-12-04T06:47:13.130Z,3.10
2017-12-04T06:49:41.481Z,2.90
2017-12-04T06:52:09.845Z,2.90
2017-12-04T06:54:38.185Z,3.00
2017-12-04T06:57:07.300Z,3.10
2017-12-04T06:59:35.700Z,3.10
2017-12-04T07:02:04.112Z,3.10
2017-12-04T07:04:32.487Z,3.10
2017-12-04T07:07:00.892Z,3.20
2017-12-04T07:09:30.013Z,3.20
2017-12-04T07:11:58.393Z,3.20
2017-12-04T07:14:26.761Z,3.20
2017-12-04T07:16:55.140Z,3.20
2017-12-04T07:19:23.493Z,3.20
2017-12-04T07:21:51.858Z,3.20
2017-12-04T07:24:20.207Z,3.20
2017-12-04T07:26:48.549Z,3.20
2017-12-04T07:29:16.926Z,3.20
2017-12-04T07:31:46.041Z,3.20
2017-12-04T07:34:14.396Z,3.20
2017-12-04T07:36:43.545Z,3.20
2017-12-04T07:39:11.904Z,3.20
2017-12-04T07:41:40.254Z,3.20
2017-12-04T07:44:08.635Z,3.20
2017-12-04T07:46:39.603Z,3.20
2017-12-04T07:49:07.959Z,3.20
2017-12-04T07:51:36.524Z,3.30
2017-12-04T07:54:05.637Z,3.30
2017-12-04T07:56:34.014Z,3.30
2017-12-04T07:59:02.361Z,3.20
2017-12-04T08:01:31.537Z,3.30
2017-12-04T08:04:00.084Z,3.30
2017-12-04T08:06:28.449Z,3.40
2017-12-04T08:08:56.839Z,3.40
2017-12-04T08:11:25.249Z,3.40
2017-12-04T08:13:53.659Z,3.50
2017-12-04T08:16:22.020Z,3.50
2017-12-04T08:18:50.388Z,3.50
2017-12-04T08:21:18.546Z,3.40
2017-12-04T08:23:46.741Z,3.40
2017-12-04T08:26:15.125Z,3.40
2017-12-04T08:28:43.465Z,3.40
2017-12-04T08:31:12.659Z,3.40
2017-12-04T08:33:41.096Z,3.40
2017-12-04T08:36:10.270Z,3.40
2017-12-04T08:38:39.420Z,3.50
2017-12-04T08:41:07.817Z,3.50
2017-12-04T08:43:36.216Z,3.50
2017-12-04T08:46:04.604Z,3.40
2017-12-04T08:48:32.976Z,3.30
2017-12-04T08:51:01.337Z,3.50
2017-12-04T08:53:30.509Z,3.70
2017-12-04T08:55:58.946Z,3.60
2017-12-04T08:58:28.146Z,3.70
2017-12-04T09:00:56.965Z,3.80
2017-12-04T09:03:25.362Z,3.80
2017-12-04T09:05:53.720Z,3.80
2017-12-04T09:08:22.077Z,3.80
2017-12-04T09:10:51.393Z,3.80
2017-12-04T09:13:19.821Z,3.80
2017-12-04T09:15:48.206Z,3.90
2017-12-04T09:18:17.406Z,3.90
2017-12-04T09:20:46.565Z,3.90
2017-12-04T09:23:14.903Z,3.90
2017-12-04T09:25:43.747Z,3.90
2017-12-04T09:28:12.236Z,4.00
2017-12-04T09:30:39.998Z,4.00
2017-12-04T09:33:07.740Z,4.00
2017-12-04T09:35:35.801Z,4.00
2017-12-04T09:38:03.810Z,4.10
2017-12-04T09:40:31.865Z,4.10
2017-12-04T09:43:00.299Z,4.20
2017-12-04T09:45:28.391Z,4.30
2017-12-04T09:47:56.857Z,4.40
2017-12-04T09:50:24.993Z,4.40
2017-12-04T09:52:54.120Z,4.20
2017-12-04T09:55:22.527Z,4.20
2017-12-04T09:57:51.813Z,4.10
2017-12-04T10:00:19.497Z,4.10
2017-12-04T10:02:47.937Z,4.40
2017-12-04T10:05:15.974Z,4.40
2017-12-04T10:07:45.169Z,4.40
2017-12-04T10:10:14.374Z,4.50
2017-12-04T10:12:43.185Z,4.40
2017-12-04T10:15:12.318Z,4.50
2017-12-04T10:17:40.674Z,4.50
2017-12-04T10:20:09.017Z,4.50
2017-12-04T10:22:37.580Z,4.70
2017-12-04T10:25:05.989Z,4.80
2017-12-04T10:27:35.089Z,4.90
2017-12-04T10:30:03.881Z,4.70
2017-12-04T10:32:33.033Z,4.70
2017-12-04T10:35:01.399Z,4.70
2017-12-04T10:37:30.110Z,4.90
2017-12-04T10:39:58.497Z,5.00
2017-12-04T10:42:26.697Z,4.90
2017-12-04T10:44:54.876Z,4.90
2017-12-04T10:47:23.236Z,5.00
2017-12-04T10:49:52.200Z,5.10
2017-12-04T10:52:20.554Z,5.10
2017-12-04T10:54:48.904Z,5.20
2017-12-04T10:57:17.080Z,5.20
2017-12-04T10:59:45.241Z,5.20
2017-12-04T11:02:13.456Z,5.30
2017-12-04T11:04:41.620Z,5.30
2017-12-04T11:07:09.973Z,5.30
2017-12-04T11:09:38.149Z,5.30
2017-12-04T11:12:06.173Z,5.30
2017-12-04T11:14:34.574Z,5.30
2017-12-04T11:17:03.688Z,5.30
2017-12-04T11:19:32.053Z,5.20
2017-12-04T11:22:00.527Z,5.30
2017-12-04T11:24:29.137Z,5.30
2017-12-04T11:26:57.309Z,5.30
2017-12-04T11:29:25.484Z,5.20
2017-12-04T11:31:53.837Z,5.30
2017-12-04T11:34:22.307Z,5.30
2017-12-04T11:36:50.325Z,5.30
2017-12-04T11:39:18.669Z,5.30
2017-12-04T11:41:47.855Z,5.40
2017-12-04T11:44:16.650Z,5.40
2017-12-04T11:46:45.886Z,5.40
2017-12-04T11:49:14.760Z,5.40
2017-12-04T11:51:43.151Z,5.40
2017-12-04T11:54:11.199Z,5.40
2017-12-04T11:56:39.602Z,5.40
2017-12-04T11:59:07.654Z,5.40
2017-12-04T12:01:36.037Z,5.40
2017-12-04T12:04:04.388Z,5.50
2017-12-04T12:06:34.036Z,5.50
2017-12-04T12:09:02.407Z,5.50
2017-12-04T12:11:30.770Z,5.50
2017-12-04T12:13:59.209Z,5.50
2017-12-04T12:16:27.563Z,5.60
2017-12-04T12:18:55.938Z,5.60
2017-12-04T12:21:24.314Z,5.60
2017-12-04T12:23:52.689Z,5.60
2017-12-04T12:26:21.051Z,5.70
2017-12-04T12:28:49.409Z,5.70
2017-12-04T12:31:17.785Z,5.70
2017-12-04T12:33:46.909Z,5.70
2017-12-04T12:36:15.278Z,5.70
2017-12-04T12:38:43.633Z,5.70
2017-12-04T12:41:12.757Z,5.80
2017-12-04T12:43:41.133Z,5.70
2017-12-04T12:46:09.479Z,5.80
2017-12-04T12:48:38.625Z,5.90
2017-12-04T12:51:06.982Z,5.90
2017-12-04T12:53:35.332Z,5.90
2017-12-04T12:56:04.503Z,5.90
2017-12-04T12:58:32.884Z,5.80
2017-12-04T13:01:01.273Z,5.90
2017-12-04T13:03:29.619Z,6.00
2017-12-04T13:05:57.976Z,6.00
2017-12-04T13:08:27.120Z,6.10
2017-12-04T13:10:55.609Z,6.00
2017-12-04T13:13:23.975Z,6.10
2017-12-04T13:15:52.335Z,6.20
2017-12-04T13:18:20.687Z,6.10
2017-12-04T13:20:49.045Z,6.10
2017-12-04T13:23:17.393Z,6.10
2017-12-04T13:25:46.553Z,6.20
2017-12-04T13:28:14.903Z,6.20
2017-12-04T13:30:43.057Z,6.10
2017-12-04T13:33:23.405Z,6.00
2017-12-04T13:36:03.702Z,6.00
2017-12-04T13:38:32.055Z,5.90
2017-12-04T13:41:00.409Z,6.00
2017-12-04T13:43:28.777Z,6.00
2017-12-04T13:45:56.936Z,6.00
2017-12-04T13:48:25.108Z,6.00
2017-12-04T13:50:53.297Z,6.00
2017-12-04T13:53:21.457Z,6.00
2017-12-04T13:55:49.649Z,6.00
2017-12-04T13:58:17.814Z,5.90
2017-12-04T14:00:46.013Z,5.90
2017-12-04T14:03:14.385Z,5.90
2017-12-04T14:05:43.500Z,5.80
2017-12-04T14:08:12.656Z,5.90
2017-12-04T14:10:41.189Z,5.90
2017-12-04T14:13:09.577Z,5.90
2017-12-04T14:15:37.942Z,5.90
2017-12-04T14:18:06.096Z,6.00
2017-12-04T14:20:35.043Z,5.80
2017-12-04T14:23:03.384Z,5.80
2017-12-04T14:25:31.736Z,5.70
2017-12-04T14:28:00.977Z,5.70
2017-12-04T14:30:29.345Z,5.70
2017-12-04T14:32:57.708Z,5.70
2017-12-04T14:35:26.927Z,5.70
2017-12-04T14:37:55.275Z,5.70
2017-12-04T14:40:24.622Z,5.70
2017-12-04T14:42:52.965Z,5.70
2017-12-04T14:45:21.325Z,5.70
2017-12-04T14:47:50.104Z,5.80
2017-12-04T14:50:18.128Z,5.80
2017-12-04T14:52:45.815Z,5.80
2017-12-04T14:55:13.549Z,5.80
2017-12-04T14:57:41.240Z,5.70
2017-12-04T15:00:09.256Z,5.70
2017-12-04T15:02:36.946Z,5.70
2017-12-04T15:05:04.634Z,5.60
2017-12-04T15:07:32.347Z,5.60
2017-12-04T15:10:00.376Z,5.60
2017-12-04T15:12:27.904Z,5.60
2017-12-04T15:14:55.768Z,5.60
2017-12-04T15:17:24.050Z,5.60
2017-12-04T15:19:52.069Z,5.60
2017-12-04T15:22:20.338Z,5.60
2017-12-04T15:24:48.804Z,5.70
2017-12-04T15:27:16.492Z,5.70
2017-12-04T15:29:44.210Z,5.70
2017-12-04T15:32:11.949Z,5.70
2017-12-04T15:34:39.709Z,5.70
2017-12-04T15:37:07.389Z,5.70
2017-12-04T15:39:35.095Z,5.70
2017-12-04T15:42:03.544Z,5.70
2017-12-04T15:44:31.232Z,5.60
2017-12-04T15:46:59.741Z,5.70
2017-12-04T15:49:27.496Z,5.70
2017-12-04T15:51:55.250Z,5.70
2017-12-04T15:54:23.417Z,5.70
2017-12-04T15:56:52.542Z,5.70
2017-12-04T15:59:20.232Z,5.60
2017-12-04T16:01:48.000Z,5.70
2017-12-04T16:04:15.759Z,5.70
2017-12-04T16:06:43.459Z,5.70
2017-12-04T16:09:11.162Z,5.70
2017-12-04T16:11:39.206Z,5.70
2017-12-04T16:14:08.352Z,5.70
2017-12-04T16:16:36.712Z,5.60
2017-12-04T16:19:05.069Z,5.70
2017-12-04T16:21:33.088Z,5.70
2017-12-04T16:24:01.561Z,5.60
2017-12-04T16:26:29.706Z,5.60
2017-12-04T16:28:58.057Z,5.60
2017-12-04T16:31:26.852Z,5.60
2017-12-04T16:33:55.067Z,5.60
2017-12-04T16:36:23.079Z,5.60
2017-12-04T16:38:52.036Z,5.50
2017-12-04T16:41:19.971Z,5.50
2017-12-04T16:43:47.851Z,5.50
2017-12-04T16:46:16.014Z,5.50
2017-12-04T16:48:44.382Z,5.50
2017-12-04T16:51:12.667Z,5.50
2017-12-04T16:53:40.688Z,5.50
2017-12-04T16:56:09.054Z,5.50
2017-12-04T16:58:37.103Z,5.50
2017-12-04T17:01:04.817Z,5.50
2017-12-04T17:03:34.003Z,5.40
2017-12-04T17:06:02.221Z,5.40
2017-12-04T17:08:30.578Z,5.40
2017-12-04T17:10:58.959Z,5.40
2017-12-04T17:13:26.978Z,5.50
2017-12-04T17:15:55.335Z,5.50
2017-12-04T17:18:23.692Z,5.60
2017-12-04T17:20:52.047Z,5.70
2017-12-04T17:23:20.833Z,5.50
2017-12-04T17:25:49.986Z,5.60
2017-12-04T17:28:18.355Z,5.50
2017-12-04T17:30:46.725Z,5.40
2017-12-04T17:33:14.792Z,5.40
2017-12-04T17:35:43.148Z,5.40
2017-12-04T17:38:11.500Z,5.40
2017-12-04T17:40:40.284Z,5.40
2017-12-04T17:43:08.346Z,5.40
2017-12-04T17:45:36.692Z,5.40
2017-12-04T17:48:04.732Z,5.30
2017-12-04T17:50:33.100Z,5.30
2017-12-04T17:53:02.021Z,5.40
2017-12-04T17:55:30.470Z,5.30
2017-12-04T17:57:58.888Z,5.50
2017-12-04T18:00:26.613Z,5.40
2017-12-04T18:02:55.726Z,5.40
2017-12-04T18:05:23.625Z,5.40
2017-12-04T18:07:51.348Z,5.40
2017-12-04T18:10:19.070Z,5.40
2017-12-04T18:12:46.772Z,5.40
2017-12-04T18:15:14.490Z,5.40
2017-12-04T18:17:42.178Z,5.40
2017-12-04T18:20:10.653Z,5.40
2017-12-04T18:22:39.508Z,5.50
2017-12-04T18:25:07.240Z,5.50
2017-12-04T18:27:34.939Z,5.40
2017-12-04T18:30:02.708Z,5.40
2017-12-04T18:32:31.102Z,5.40
2017-12-04T18:34:58.838Z,5.40
2017-12-04T18:37:26.552Z,5.40
2017-12-04T18:39:55.010Z,5.40
2017-12-04T18:42:23.396Z,5.40
2017-12-04T18:44:51.867Z,5.40
2017-12-04T18:47:19.688Z,5.40
2017-12-04T18:49:47.435Z,5.40
2017-12-04T18:52:15.141Z,5.40
2017-12-04T18:54:42.838Z,5.40
2017-12-04T18:57:11.643Z,5.40
2017-12-04T18:59:39.352Z,5.40
2017-12-04T19:02:07.043Z,5.40
2017-12-04T19:04:35.496Z,5.40
2017-12-04T19:07:03.236Z,5.40
2017-12-04T19:09:30.917Z,5.40
2017-12-04T19:11:58.614Z,5.40
2017-12-04T19:14:27.392Z,5.40
2017-12-04T19:16:55.200Z,5.40
2017-12-04T19:19:22.921Z,5.40
2017-12-04T19:21:51.406Z,5.40
2017-12-04T19:24:19.925Z,5.40
2017-12-04T19:26:47.629Z,5.40
2017-12-04T19:29:15.708Z,5.40
2017-12-04T19:31:43.752Z,5.40
2017-12-04T19:34:11.802Z,5.40
2017-12-04T19:36:39.477Z,5.40
2017-12-04T19:39:07.179Z,5.40
2017-12-04T19:41:34.675Z,5.40
2017-12-04T19:44:02.522Z,5.40
2017-12-04T19:46:30.776Z,5.50
2017-12-04T19:48:59.081Z,5.50
2017-12-04T19:51:26.800Z,5.50
2017-12-04T19:53:54.485Z,5.50
2017-12-04T19:56:23.323Z,5.50
2017-12-04T19:58:51.353Z,5.50
2017-12-04T20:01:19.833Z,5.40
2017-12-04T20:03:48.617Z,5.40
2017-12-04T20:06:17.766Z,5.40
2017-12-04T20:08:45.544Z,5.40
2017-12-04T20:11:13.404Z,5.40
2017-12-04T20:13:41.171Z,5.30
2017-12-04T20:16:09.905Z,5.40
2017-12-04T20:18:37.736Z,5.30
2017-12-04T20:21:05.624Z,5.30
2017-12-04T20:23:34.154Z,5.30
2017-12-04T20:26:01.860Z,5.30
2017-12-04T20:28:30.744Z,5.40
2017-12-04T20:30:58.475Z,5.40
2017-12-04T20:33:26.522Z,5.30
2017-12-04T20:35:54.197Z,5.30
2017-12-04T20:38:21.894Z,5.40
2017-12-04T20:40:49.644Z,5.40
2017-12-04T20:43:17.398Z,5.30
2017-12-04T20:45:45.107Z,5.30
2017-12-04T20:48:13.552Z,5.40
2017-12-04T20:50:41.307Z,5.40
2017-12-04T20:53:09.361Z,5.40
2017-12-04T20:55:37.073Z,5.30
2017-12-04T20:58:04.905Z,5.30
2017-12-04T21:00:32.632Z,5.30
2017-12-04T21:03:00.404Z,5.30
2017-12-04T21:05:28.233Z,5.30
2017-12-04T21:07:56.859Z,5.30
2017-12-04T21:10:36.435Z,5.30
2017-12-04T21:13:15.966Z,5.40
2017-12-04T21:15:55.589Z,5.40
2017-12-04T21:18:23.365Z,5.40
2017-12-04T21:20:51.044Z,5.30
2017-12-04T21:23:18.794Z,5.30
2017-12-04T21:25:46.568Z,5.30
2017-12-04T21:28:14.290Z,5.20
2017-12-04T21:30:42.025Z,5.30
2017-12-04T21:33:10.489Z,5.50
2017-12-04T21:35:38.198Z,5.50
2017-12-04T21:38:05.925Z,5.40
2017-12-04T21:40:34.413Z,5.20
2017-12-04T21:43:02.866Z,5.30
2017-12-04T21:45:30.993Z,5.30
2017-12-04T21:47:58.679Z,5.30
2017-12-04T21:50:26.424Z,5.40
2017-12-04T21:52:54.118Z,5.30
2017-12-04T21:55:21.808Z,5.20
2017-12-04T21:57:50.600Z,5.20
2017-12-04T22:00:19.401Z,5.20
2017-12-04T22:02:47.468Z,5.20
2017-12-04T22:05:15.519Z,5.20
2017-12-04T22:07:44.349Z,5.20
2017-12-04T22:10:12.054Z,5.20
2017-12-04T22:12:39.761Z,5.30
2017-12-04T22:15:07.479Z,5.30
2017-12-04T22:17:36.006Z,5.20
2017-12-04T22:20:04.032Z,5.20
2017-12-04T22:22:31.721Z,5.10
2017-12-04T22:25:00.177Z,5.20
2017-12-04T22:27:28.656Z,5.20
2017-12-04T22:29:56.356Z,5.20
2017-12-04T22:32:24.373Z,5.10
2017-12-04T22:34:52.089Z,5.00
2017-12-04T22:37:19.779Z,5.00
2017-12-04T22:39:47.458Z,5.00
2017-12-04T22:42:15.161Z,5.00
2017-12-04T22:44:43.612Z,5.00
2017-12-04T22:47:11.637Z,5.00
2017-12-04T22:49:39.346Z,5.00
2017-12-04T22:52:07.041Z,5.00
2017-12-04T22:54:34.540Z,4.90
2017-12-04T22:57:02.269Z,4.90
2017-12-04T22:59:29.764Z,5.00
2017-12-04T23:01:57.780Z,5.00
2017-12-04T23:04:26.586Z,5.00
2017-12-04T23:06:54.081Z,4.90
2017-12-04T23:09:21.925Z,4.90
2017-12-04T23:11:49.437Z,5.00
2017-12-04T23:14:17.277Z,5.10
2017-12-04T23:16:45.028Z,5.10
2017-12-04T23:19:12.593Z,5.10
2017-12-04T23:21:40.083Z,5.10
2017-12-04T23:24:08.341Z,5.10
2017-12-04T23:26:36.180Z,5.00
2017-12-04T23:29:03.888Z,5.00
2017-12-04T23:31:32.352Z,4.90
2017-12-04T23:33:59.866Z,4.90
2017-12-04T23:36:27.734Z,4.90
2017-12-04T23:38:55.419Z,5.00
2017-12-04T23:41:23.125Z,4.90
2017-12-04T23:43:52.231Z,5.00
2017-12-04T23:46:20.593Z,4.90
2017-12-04T23:48:49.383Z,5.10
2017-12-04T23:51:18.312Z,5.00
2017-12-04T23:53:46.672Z,5.00
2017-12-04T23:56:15.031Z,5.00
2017-12-04T23:58:44.175Z,4.90
